sensor_id;sensor_type;location;lat;lon;timestamp;pressure;altitude;pressure_sealevel;temperature;humidity
30935;BME280;51033;42.648;23.292;2024-02-16T00:02:15;94343.44;;;3.87;47.58
30935;BME280;51033;42.648;23.292;2024-02-16T00:04:42;94340.03;;;3.81;47.33
30935;BME280;51033;42.648;23.292;2024-02-16T00:07:08;94384.03;;;4.06;47.39
30935;BME280;51033;42.648;23.292;2024-02-16T00:09:33;94387.19;;;4.03;47.25
30935;BME280;51033;42.648;23.292;2024-02-16T00:11:59;94388.28;;;4.07;47.35
30935;BME280;51033;42.648;23.292;2024-02-16T00:14:24;94389.31;;;3.96;47.39
30935;BME280;51033;42.648;23.292;2024-02-16T00:16:49;94388.50;;;3.96;47.40
30935;BME280;51033;42.648;23.292;2024-02-16T00:19:15;94392.97;;;3.95;47.53
30935;BME280;51033;42.648;23.292;2024-02-16T00:21:40;94382.94;;;3.92;47.63
30935;BME280;51033;42.648;23.292;2024-02-16T00:24:07;94393.19;;;3.89;47.86
30935;BME280;51033;42.648;23.292;2024-02-16T00:26:33;94399.31;;;3.99;48.01
30935;BME280;51033;42.648;23.292;2024-02-16T00:28:58;94390.31;;;3.90;48.04
30935;BME280;51033;42.648;23.292;2024-02-16T00:31:24;94362.31;;;3.64;48.20
30935;BME280;51033;42.648;23.292;2024-02-16T00:33:49;94391.66;;;3.98;48.09
30935;BME280;51033;42.648;23.292;2024-02-16T00:36:14;94394.56;;;3.96;48.19
30935;BME280;51033;42.648;23.292;2024-02-16T00:38:40;94386.88;;;3.84;48.22
30935;BME280;51033;42.648;23.292;2024-02-16T00:41:07;94398.72;;;3.92;48.44
30935;BME280;51033;42.648;23.292;2024-02-16T00:43:32;94396.88;;;3.88;48.53
30935;BME280;51033;42.648;23.292;2024-02-16T00:45:58;94350.25;;;3.73;48.15
30935;BME280;51033;42.648;23.292;2024-02-16T00:48:23;94396.72;;;4.09;47.91
30935;BME280;51033;42.648;23.292;2024-02-16T00:50:49;94397.22;;;4.11;47.97
30935;BME280;51033;42.648;23.292;2024-02-16T00:53:14;94391.72;;;4.18;47.84
30935;BME280;51033;42.648;23.292;2024-02-16T00:55:40;94397.78;;;4.18;47.57
30935;BME280;51033;42.648;23.292;2024-02-16T00:58:06;94396.19;;;4.12;47.71
30935;BME280;51033;42.648;23.292;2024-02-16T01:00:32;94397.72;;;4.03;47.76
30935;BME280;51033;42.648;23.292;2024-02-16T01:02:57;94380.53;;;3.75;48.18
30935;BME280;51033;42.648;23.292;2024-02-16T01:05:23;94382.91;;;3.77;48.13
30935;BME280;51033;42.648;23.292;2024-02-16T01:07:48;94397.16;;;3.86;48.18
30935;BME280;51033;42.648;23.292;2024-02-16T01:10:13;94379.19;;;3.73;48.27
30935;BME280;51033;42.648;23.292;2024-02-16T01:12:39;94399.75;;;3.81;48.42
30935;BME280;51033;42.648;23.292;2024-02-16T01:15:05;94395.81;;;3.83;48.50
30935;BME280;51033;42.648;23.292;2024-02-16T01:17:30;94392.94;;;3.90;48.12
30935;BME280;51033;42.648;23.292;2024-02-16T01:19:58;94389.53;;;3.90;48.23
30935;BME280;51033;42.648;23.292;2024-02-16T01:22:23;94397.94;;;3.92;47.92
30935;BME280;51033;42.648;23.292;2024-02-16T01:24:48;94388.72;;;3.89;47.95
30935;BME280;51033;42.648;23.292;2024-02-16T01:27:14;94380.81;;;3.84;48.00
30935;BME280;51033;42.648;23.292;2024-02-16T01:29:41;94384.00;;;3.86;48.16
30935;BME280;51033;42.648;23.292;2024-02-16T01:32:06;94381.91;;;3.93;47.95
30935;BME280;51033;42.648;23.292;2024-02-16T01:34:32;94371.41;;;3.98;47.76
30935;BME280;51033;42.648;23.292;2024-02-16T01:36:57;94376.16;;;4.01;47.89
30935;BME280;51033;42.648;23.292;2024-02-16T01:39:23;94358.44;;;3.76;48.11
30935;BME280;51033;42.648;23.292;2024-02-16T01:41:49;94348.13;;;3.70;47.87
30935;BME280;51033;42.648;23.292;2024-02-16T01:44:14;94376.59;;;3.83;48.11
30935;BME280;51033;42.648;23.292;2024-02-16T01:46:42;94373.13;;;3.72;48.25
30935;BME280;51033;42.648;23.292;2024-02-16T01:49:07;94348.09;;;3.65;48.20
30935;BME280;51033;42.648;23.292;2024-02-16T01:51:33;94352.06;;;3.72;48.29
30935;BME280;51033;42.648;23.292;2024-02-16T01:54:00;94368.75;;;3.93;47.91
30935;BME280;51033;42.648;23.292;2024-02-16T01:56:26;94356.28;;;3.73;48.06
30935;BME280;51033;42.648;23.292;2024-02-16T01:58:52;94347.34;;;3.69;48.06
30935;BME280;51033;42.648;23.292;2024-02-16T02:01:17;94361.88;;;3.87;48.12
30935;BME280;51033;42.648;23.292;2024-02-16T02:03:43;94370.34;;;3.94;47.99
30935;BME280;51033;42.648;23.292;2024-02-16T02:06:08;94361.38;;;3.90;47.77
30935;BME280;51033;42.648;23.292;2024-02-16T02:08:33;94366.63;;;3.90;47.83
30935;BME280;51033;42.648;23.292;2024-02-16T02:10:59;94363.75;;;3.97;47.59
30935;BME280;51033;42.648;23.292;2024-02-16T02:13:24;94369.28;;;3.90;47.64
30935;BME280;51033;42.648;23.292;2024-02-16T02:15:50;94370.81;;;3.81;48.04
30935;BME280;51033;42.648;23.292;2024-02-16T02:18:15;94368.66;;;3.73;48.07
30935;BME280;51033;42.648;23.292;2024-02-16T02:20:41;94359.19;;;3.72;48.13
30935;BME280;51033;42.648;23.292;2024-02-16T02:23:06;94358.63;;;3.65;48.23
30935;BME280;51033;42.648;23.292;2024-02-16T02:25:31;94375.00;;;3.72;48.33
30935;BME280;51033;42.648;23.292;2024-02-16T02:27:57;94348.63;;;3.62;48.36
30935;BME280;51033;42.648;23.292;2024-02-16T02:30:22;94367.31;;;3.65;48.55
30935;BME280;51033;42.648;23.292;2024-02-16T02:32:50;94371.78;;;3.65;48.49
30935;BME280;51033;42.648;23.292;2024-02-16T02:35:16;94371.25;;;3.63;48.62
30935;BME280;51033;42.648;23.292;2024-02-16T02:37:42;94360.69;;;3.58;48.73
30935;BME280;51033;42.648;23.292;2024-02-16T02:40:08;94368.03;;;3.51;48.83
30935;BME280;51033;42.648;23.292;2024-02-16T02:42:34;94371.72;;;3.50;49.03
30935;BME280;51033;42.648;23.292;2024-02-16T02:45:00;94374.13;;;3.56;48.95
30935;BME280;51033;42.648;23.292;2024-02-16T02:47:25;94364.31;;;3.42;48.91
30935;BME280;51033;42.648;23.292;2024-02-16T02:49:51;94367.00;;;3.52;48.92
30935;BME280;51033;42.648;23.292;2024-02-16T02:52:16;94369.69;;;3.67;48.80
30935;BME280;51033;42.648;23.292;2024-02-16T02:54:42;94366.25;;;3.61;48.54
30935;BME280;51033;42.648;23.292;2024-02-16T02:57:07;94371.94;;;3.48;48.76
30935;BME280;51033;42.648;23.292;2024-02-16T02:59:33;94376.31;;;3.27;49.20
30935;BME280;51033;42.648;23.292;2024-02-16T03:01:58;94371.63;;;3.34;48.95
30935;BME280;51033;42.648;23.292;2024-02-16T03:04:24;94366.97;;;3.47;48.76
30935;BME280;51033;42.648;23.292;2024-02-16T03:06:52;94370.59;;;3.40;49.03
30935;BME280;51033;42.648;23.292;2024-02-16T03:09:17;94363.28;;;3.48;48.95
30935;BME280;51033;42.648;23.292;2024-02-16T03:11:43;94336.91;;;3.32;48.72
30935;BME280;51033;42.648;23.292;2024-02-16T03:14:08;94372.25;;;3.52;48.69
30935;BME280;51033;42.648;23.292;2024-02-16T03:16:33;94367.00;;;3.52;48.80
30935;BME280;51033;42.648;23.292;2024-02-16T03:18:59;94354.34;;;3.49;48.71
30935;BME280;51033;42.648;23.292;2024-02-16T03:21:25;94347.97;;;3.39;48.54
30935;BME280;51033;42.648;23.292;2024-02-16T03:23:50;94365.41;;;3.51;48.56
30935;BME280;51033;42.648;23.292;2024-02-16T03:26:16;94375.63;;;3.42;48.95
30935;BME280;51033;42.648;23.292;2024-02-16T03:28:48;94363.53;;;3.46;49.03
30935;BME280;51033;42.648;23.292;2024-02-16T03:33:42;94378.97;;;3.32;49.24
30935;BME280;51033;42.648;23.292;2024-02-16T03:36:08;94358.72;;;3.28;49.31
30935;BME280;51033;42.648;23.292;2024-02-16T03:38:34;94369.06;;;3.50;48.90
30935;BME280;51033;42.648;23.292;2024-02-16T03:40:59;94371.09;;;3.32;49.17
30935;BME280;51033;42.648;23.292;2024-02-16T03:43:24;94370.03;;;3.33;49.43
30935;BME280;51033;42.648;23.292;2024-02-16T03:45:50;94383.44;;;3.32;49.52
30935;BME280;51033;42.648;23.292;2024-02-16T03:48:15;94365.81;;;3.27;49.59
30935;BME280;51033;42.648;23.292;2024-02-16T03:50:41;94379.25;;;3.36;49.50
30935;BME280;51033;42.648;23.292;2024-02-16T03:53:06;94384.47;;;3.31;49.68
30935;BME280;51033;42.648;23.292;2024-02-16T03:55:31;94386.28;;;3.25;49.55
30935;BME280;51033;42.648;23.292;2024-02-16T03:58:01;94368.03;;;3.09;49.71
30935;BME280;51033;42.648;23.292;2024-02-16T04:00:27;94377.03;;;3.18;49.92
30935;BME280;51033;42.648;23.292;2024-02-16T04:02:53;94372.56;;;3.13;49.83
30935;BME280;51033;42.648;23.292;2024-02-16T04:05:18;94359.44;;;3.23;49.94
30935;BME280;51033;42.648;23.292;2024-02-16T04:07:43;94372.97;;;3.37;49.57
30935;BME280;51033;42.648;23.292;2024-02-16T04:10:09;94370.59;;;3.40;49.61
30935;BME280;51033;42.648;23.292;2024-02-16T04:12:34;94360.66;;;3.48;49.57
30935;BME280;51033;42.648;23.292;2024-02-16T04:15:01;94363.53;;;3.46;49.43
30935;BME280;51033;42.648;23.292;2024-02-16T04:17:27;94358.00;;;3.43;49.47
30935;BME280;51033;42.648;23.292;2024-02-16T04:19:52;94370.09;;;3.44;49.24
30935;BME280;51033;42.648;23.292;2024-02-16T04:22:17;94365.81;;;3.27;49.34
30935;BME280;51033;42.648;23.292;2024-02-16T04:24:43;94374.53;;;3.33;49.43
30935;BME280;51033;42.648;23.292;2024-02-16T04:27:08;94360.03;;;3.30;49.25
30935;BME280;51033;42.648;23.292;2024-02-16T04:29:33;94370.03;;;3.33;49.54
30935;BME280;51033;42.648;23.292;2024-02-16T04:31:59;94367.91;;;3.30;49.30
30935;BME280;51033;42.648;23.292;2024-02-16T04:34:24;94373.78;;;3.43;49.23
30935;BME280;51033;42.648;23.292;2024-02-16T04:36:49;94355.50;;;3.21;49.53
30935;BME280;51033;42.648;23.292;2024-02-16T04:39:15;94373.72;;;3.32;49.64
30935;BME280;51033;42.648;23.292;2024-02-16T04:41:42;94377.38;;;3.31;49.72
30935;BME280;51033;42.648;23.292;2024-02-16T04:44:07;94378.94;;;3.27;49.72
30935;BME280;51033;42.648;23.292;2024-02-16T04:46:33;94375.22;;;3.18;49.79
30935;BME280;51033;42.648;23.292;2024-02-16T04:48:58;94352.69;;;2.95;49.86
30935;BME280;51033;42.648;23.292;2024-02-16T04:51:24;94367.16;;;2.93;50.21
30935;BME280;51033;42.648;23.292;2024-02-16T04:53:49;94384.31;;;3.06;49.98
30935;BME280;51033;42.648;23.292;2024-02-16T04:56:14;94371.34;;;2.94;49.98
30935;BME280;51033;42.648;23.292;2024-02-16T04:58:41;94372.44;;;2.98;49.99
30935;BME280;51033;42.648;23.292;2024-02-16T05:01:07;94361.94;;;2.98;50.03
30935;BME280;51033;42.648;23.292;2024-02-16T05:03:32;94385.19;;;3.16;50.15
30935;BME280;51033;42.648;23.292;2024-02-16T05:05:57;94389.31;;;3.07;50.21
30935;BME280;51033;42.648;23.292;2024-02-16T05:08:23;94394.81;;;3.06;50.26
30935;BME280;51033;42.648;23.292;2024-02-16T05:10:48;94398.75;;;3.03;50.20
30935;BME280;51033;42.648;23.292;2024-02-16T05:13:13;94376.25;;;2.85;50.33
30935;BME280;51033;42.648;23.292;2024-02-16T05:15:39;94379.41;;;2.82;50.50
30935;BME280;51033;42.648;23.292;2024-02-16T05:18:05;94401.63;;;3.02;50.37
30935;BME280;51033;42.648;23.292;2024-02-16T05:20:30;94401.34;;;2.98;50.44
30935;BME280;51033;42.648;23.292;2024-02-16T05:22:55;94407.00;;;2.85;50.59
30935;BME280;51033;42.648;23.292;2024-02-16T05:25:22;94396.50;;;2.85;50.35
30935;BME280;51033;42.648;23.292;2024-02-16T05:27:48;94406.59;;;2.98;50.40
30935;BME280;51033;42.648;23.292;2024-02-16T05:30:13;94378.06;;;2.80;50.58
30935;BME280;51033;42.648;23.292;2024-02-16T05:32:41;94396.00;;;2.88;50.44
30935;BME280;51033;42.648;23.292;2024-02-16T05:35:08;94415.47;;;2.92;50.59
30935;BME280;51033;42.648;23.292;2024-02-16T05:37:40;94396.22;;;2.81;50.59
30935;BME280;51033;42.648;23.292;2024-02-16T05:40:09;94409.63;;;2.85;50.81
30935;BME280;51033;42.648;23.292;2024-02-16T05:42:51;94417.25;;;2.86;50.95
30935;BME280;51033;42.648;23.292;2024-02-16T05:45:17;94385.81;;;2.65;50.58
30935;BME280;51033;42.648;23.292;2024-02-16T05:47:44;94429.13;;;2.89;50.95
30935;BME280;51033;42.648;23.292;2024-02-16T05:50:13;94423.59;;;2.90;51.14
30935;BME280;51033;42.648;23.292;2024-02-16T05:52:40;94425.69;;;2.88;50.59
30935;BME280;51033;42.648;23.292;2024-02-16T05:55:07;94413.09;;;2.90;50.75
30935;BME280;51033;42.648;23.292;2024-02-16T05:57:33;94435.78;;;3.02;50.62
30935;BME280;51033;42.648;23.292;2024-02-16T05:59:58;94422.88;;;3.00;50.66
30935;BME280;51033;42.648;23.292;2024-02-16T06:02:24;94431.34;;;3.02;50.80
30935;BME280;51033;42.648;23.292;2024-02-16T06:04:55;94421.66;;;3.08;50.71
30935;BME280;51033;42.648;23.292;2024-02-16T06:07:20;94414.53;;;3.03;50.51
30935;BME280;51033;42.648;23.292;2024-02-16T06:09:45;94430.03;;;3.05;50.71
30935;BME280;51033;42.648;23.292;2024-02-16T06:12:11;94425.63;;;3.15;50.74
30935;BME280;51033;42.648;23.292;2024-02-16T06:14:38;94423.63;;;3.27;50.24
30935;BME280;51033;42.648;23.292;2024-02-16T06:17:04;94427.88;;;3.33;50.34
30935;BME280;51033;42.648;23.292;2024-02-16T06:19:29;94434.25;;;3.43;50.16
30935;BME280;51033;42.648;23.292;2024-02-16T06:21:55;94434.78;;;3.45;49.88
30935;BME280;51033;42.648;23.292;2024-02-16T06:24:22;94429.50;;;3.39;49.79
30935;BME280;51033;42.648;23.292;2024-02-16T06:26:48;94424.56;;;3.53;49.74
30935;BME280;51033;42.648;23.292;2024-02-16T06:29:14;94401.94;;;3.47;49.50
30935;BME280;51033;42.648;23.292;2024-02-16T06:31:39;94421.63;;;3.87;49.23
30935;BME280;51033;42.648;23.292;2024-02-16T06:34:05;94408.63;;;3.65;48.98
30935;BME280;51033;42.648;23.292;2024-02-16T06:36:30;94409.25;;;3.87;49.16
30935;BME280;51033;42.648;23.292;2024-02-16T06:38:55;94422.50;;;4.12;48.95
30935;BME280;51033;42.648;23.292;2024-02-16T06:41:21;94433.34;;;4.26;48.54
30935;BME280;51033;42.648;23.292;2024-02-16T06:43:46;94427.84;;;4.27;48.31
30935;BME280;51033;42.648;23.292;2024-02-16T06:46:11;94427.25;;;4.10;47.85
30935;BME280;51033;42.648;23.292;2024-02-16T06:48:37;94395.31;;;3.97;48.07
30935;BME280;51033;42.648;23.292;2024-02-16T06:51:02;94432.19;;;3.97;48.77
30935;BME280;51033;42.648;23.292;2024-02-16T06:53:27;94430.41;;;4.12;48.77
30935;BME280;51033;42.648;23.292;2024-02-16T06:55:53;94428.06;;;4.16;49.13
30935;BME280;51033;42.648;23.292;2024-02-16T06:58:19;94439.16;;;3.71;49.91
30935;BME280;51033;42.648;23.292;2024-02-16T07:00:45;94426.03;;;3.76;49.87
30935;BME280;51033;42.648;23.292;2024-02-16T07:03:10;94440.47;;;4.25;49.50
30935;BME280;51033;42.648;23.292;2024-02-16T07:05:36;94439.06;;;4.03;49.99
30935;BME280;51033;42.648;23.292;2024-02-16T07:08:01;94419.28;;;3.95;50.38
30935;BME280;51033;42.648;23.292;2024-02-16T07:10:27;94443.44;;;4.34;49.80
30935;BME280;51033;42.648;23.292;2024-02-16T07:12:52;94441.22;;;4.21;49.79
30935;BME280;51033;42.648;23.292;2024-02-16T07:15:17;94443.09;;;4.20;50.09
30935;BME280;51033;42.648;23.292;2024-02-16T07:17:43;94437.13;;;4.40;49.75
30935;BME280;51033;42.648;23.292;2024-02-16T07:20:08;94430.59;;;4.58;48.93
30935;BME280;51033;42.648;23.292;2024-02-16T07:22:34;94428.97;;;4.42;48.82
30935;BME280;51033;42.648;23.292;2024-02-16T07:24:59;94433.78;;;4.75;47.68
30935;BME280;51033;42.648;23.292;2024-02-16T07:27:26;94419.50;;;4.51;48.52
30935;BME280;51033;42.648;23.292;2024-02-16T07:29:51;94442.09;;;4.32;49.13
30935;BME280;51033;42.648;23.292;2024-02-16T07:32:16;94435.53;;;4.39;49.42
30935;BME280;51033;42.648;23.292;2024-02-16T07:34:45;94435.00;;;4.32;48.54
30935;BME280;51033;42.648;23.292;2024-02-16T07:37:12;94429.56;;;4.69;48.76
30935;BME280;51033;42.648;23.292;2024-02-16T07:39:37;94429.03;;;4.77;47.33
30935;BME280;51033;42.648;23.292;2024-02-16T07:42:03;94440.66;;;4.96;47.24
30935;BME280;51033;42.648;23.292;2024-02-16T07:44:28;94435.16;;;5.23;46.54
30935;BME280;51033;42.648;23.292;2024-02-16T07:46:53;94427.75;;;5.35;47.04
30935;BME280;51033;42.648;23.292;2024-02-16T07:49:19;94430.66;;;5.19;46.57
30935;BME280;51033;42.648;23.292;2024-02-16T07:51:44;94436.69;;;5.44;45.81
30935;BME280;51033;42.648;23.292;2024-02-16T07:54:09;94440.69;;;5.17;46.15
30935;BME280;51033;42.648;23.292;2024-02-16T07:56:35;94429.88;;;5.18;46.54
30935;BME280;51033;42.648;23.292;2024-02-16T07:59:00;94436.44;;;5.21;46.58
30935;BME280;51033;42.648;23.292;2024-02-16T08:01:26;94443.56;;;5.20;46.16
30935;BME280;51033;42.648;23.292;2024-02-16T08:03:51;94441.19;;;4.83;47.96
30935;BME280;51033;42.648;23.292;2024-02-16T08:06:18;94439.88;;;5.01;47.45
30935;BME280;51033;42.648;23.292;2024-02-16T08:08:46;94446.47;;;4.93;48.03
30935;BME280;51033;42.648;23.292;2024-02-16T08:11:12;94442.78;;;5.25;47.61
30935;BME280;51033;42.648;23.292;2024-02-16T08:13:38;94445.91;;;4.76;48.76
30935;BME280;51033;42.648;23.292;2024-02-16T08:16:03;94448.50;;;4.66;48.69
30935;BME280;51033;42.648;23.292;2024-02-16T08:18:32;94452.72;;;4.62;48.94
30935;BME280;51033;42.648;23.292;2024-02-16T08:20:58;94427.47;;;4.81;48.00
30935;BME280;51033;42.648;23.292;2024-02-16T08:23:24;94446.97;;;5.00;47.61
30935;BME280;51033;42.648;23.292;2024-02-16T08:25:50;94431.69;;;4.87;48.16
30935;BME280;51033;42.648;23.292;2024-02-16T08:28:15;94442.28;;;5.28;47.02
30935;BME280;51033;42.648;23.292;2024-02-16T08:30:40;94444.91;;;5.43;46.92
30935;BME280;51033;42.648;23.292;2024-02-16T08:33:09;94435.41;;;5.01;47.37
30935;BME280;51033;42.648;23.292;2024-02-16T08:35:35;94448.34;;;5.28;47.36
30935;BME280;51033;42.648;23.292;2024-02-16T08:38:00;94450.69;;;5.50;46.80
30935;BME280;51033;42.648;23.292;2024-02-16T08:40:26;94453.84;;;5.52;46.97
30935;BME280;51033;42.648;23.292;2024-02-16T08:42:51;94435.66;;;5.10;47.82
30935;BME280;51033;42.648;23.292;2024-02-16T08:45:16;94440.88;;;4.59;48.92
30935;BME280;51033;42.648;23.292;2024-02-16T08:47:43;94449.56;;;4.65;49.09
30935;BME280;51033;42.648;23.292;2024-02-16T08:50:09;94428.03;;;4.98;48.35
30935;BME280;51033;42.648;23.292;2024-02-16T08:52:36;94446.47;;;5.24;47.62
30935;BME280;51033;42.648;23.292;2024-02-16T08:55:01;94450.69;;;5.50;47.40
30935;BME280;51033;42.648;23.292;2024-02-16T08:57:27;94449.06;;;5.74;46.57
30935;BME280;51033;42.648;23.292;2024-02-16T08:59:52;94444.28;;;5.96;46.38
30935;BME280;51033;42.648;23.292;2024-02-16T09:02:18;94453.75;;;6.02;46.22
30935;BME280;51033;42.648;23.292;2024-02-16T09:04:45;94451.47;;;5.20;47.17
30935;BME280;51033;42.648;23.292;2024-02-16T09:07:11;94460.19;;;5.16;47.73
30935;BME280;51033;42.648;23.292;2024-02-16T09:09:36;94449.13;;;5.03;47.24
30935;BME280;51033;42.648;23.292;2024-02-16T09:12:02;94443.00;;;5.58;47.12
30935;BME280;51033;42.648;23.292;2024-02-16T09:14:27;94453.31;;;5.55;46.61
30935;BME280;51033;42.648;23.292;2024-02-16T09:16:53;94462.25;;;5.74;46.79
30935;BME280;51033;42.648;23.292;2024-02-16T09:19:18;94463.31;;;5.63;46.97
30935;BME280;51033;42.648;23.292;2024-02-16T09:21:45;94466.75;;;5.64;46.29
30935;BME280;51033;42.648;23.292;2024-02-16T09:24:11;94462.81;;;5.41;47.07
30935;BME280;51033;42.648;23.292;2024-02-16T09:26:42;94463.88;;;5.55;47.04
30935;BME280;51033;42.648;23.292;2024-02-16T09:29:07;94460.66;;;5.73;46.22
30935;BME280;51033;42.648;23.292;2024-02-16T09:31:33;94453.69;;;6.33;45.50
30935;BME280;51033;42.648;23.292;2024-02-16T09:33:58;94444.91;;;6.48;45.51
30935;BME280;51033;42.648;23.292;2024-02-16T09:36:23;94453.03;;;6.56;45.13
30935;BME280;51033;42.648;23.292;2024-02-16T09:38:49;94460.66;;;5.83;46.08
30935;BME280;51033;42.648;23.292;2024-02-16T09:41:14;94448.31;;;6.48;45.79
30935;BME280;51033;42.648;23.292;2024-02-16T09:43:42;94439.88;;;6.41;45.38
30935;BME280;51033;42.648;23.292;2024-02-16T09:46:08;94455.84;;;6.21;45.85
30935;BME280;51033;42.648;23.292;2024-02-16T09:48:34;94457.53;;;5.51;46.91
30935;BME280;51033;42.648;23.292;2024-02-16T09:51:00;94458.03;;;5.78;46.63
30935;BME280;51033;42.648;23.292;2024-02-16T09:53:26;94457.50;;;5.91;46.36
30935;BME280;51033;42.648;23.292;2024-02-16T09:55:53;94452.09;;;6.27;46.02
30935;BME280;51033;42.648;23.292;2024-02-16T09:58:19;94431.47;;;6.39;45.36
30935;BME280;51033;42.648;23.292;2024-02-16T10:00:52;94443.72;;;5.99;46.45
30935;BME280;51033;42.648;23.292;2024-02-16T10:03:29;94452.22;;;5.81;46.42
30935;BME280;51033;42.648;23.292;2024-02-16T10:06:07;94440.09;;;5.70;46.28
30935;BME280;51033;42.648;23.292;2024-02-16T10:08:34;94433.75;;;5.76;46.06
30935;BME280;51033;42.648;23.292;2024-02-16T10:11:01;94428.44;;;5.96;46.09
30935;BME280;51033;42.648;23.292;2024-02-16T10:13:27;94433.41;;;6.08;45.69
30935;BME280;51033;42.648;23.292;2024-02-16T10:15:52;94431.81;;;6.02;45.36
30935;BME280;51033;42.648;23.292;2024-02-16T10:18:28;94379.47;;;5.45;45.48
30935;BME280;51033;42.648;23.292;2024-02-16T10:20:54;94433.75;;;5.76;45.94
30935;BME280;51033;42.648;23.292;2024-02-16T10:23:19;94422.03;;;6.13;45.88
30935;BME280;51033;42.648;23.292;2024-02-16T10:25:45;94412.38;;;6.52;44.85
30935;BME280;51033;42.648;23.292;2024-02-16T10:28:11;94423.81;;;6.32;45.03
30935;BME280;51033;42.648;23.292;2024-02-16T10:30:40;94415.66;;;6.29;45.83
30935;BME280;51033;42.648;23.292;2024-02-16T10:33:06;94420.97;;;6.09;45.13
30935;BME280;51033;42.648;23.292;2024-02-16T10:35:36;94413.84;;;6.14;45.49
30935;BME280;51033;42.648;23.292;2024-02-16T10:38:04;94412.44;;;6.37;45.12
30935;BME280;51033;42.648;23.292;2024-02-16T10:40:41;94406.72;;;6.69;45.14
30935;BME280;51033;42.648;23.292;2024-02-16T10:43:08;94399.72;;;6.49;44.43
30935;BME280;51033;42.648;23.292;2024-02-16T10:45:35;94406.69;;;6.74;44.44
30935;BME280;51033;42.648;23.292;2024-02-16T10:48:05;94398.75;;;6.30;44.99
30935;BME280;51033;42.648;23.292;2024-02-16T10:50:32;94395.56;;;6.33;45.32
30935;BME280;51033;42.648;23.292;2024-02-16T10:53:19;94397.69;;;6.31;45.11
30935;BME280;51033;42.648;23.292;2024-02-16T10:55:46;94371.78;;;6.33;44.38
30935;BME280;51033;42.648;23.292;2024-02-16T10:58:11;94377.09;;;6.72;43.93
30935;BME280;51033;42.648;23.292;2024-02-16T11:00:49;94390.38;;;7.01;43.66
30935;BME280;51033;42.648;23.292;2024-02-16T11:03:16;94390.03;;;7.41;43.62
30935;BME280;51033;42.648;23.292;2024-02-16T11:05:42;94390.22;;;6.87;43.26
30935;BME280;51033;42.648;23.292;2024-02-16T11:08:18;94382.38;;;6.72;43.36
30935;BME280;51033;42.648;23.292;2024-02-16T11:10:54;94382.94;;;6.69;43.63
30935;BME280;51033;42.648;23.292;2024-02-16T11:13:28;94385.06;;;6.67;44.26
30935;BME280;51033;42.648;23.292;2024-02-16T11:15:58;94360.84;;;6.50;44.28
30935;BME280;51033;42.648;23.292;2024-02-16T11:18:28;94376.63;;;6.65;43.90
30935;BME280;51033;42.648;23.292;2024-02-16T11:20:54;94375.97;;;7.17;43.34
30935;BME280;51033;42.648;23.292;2024-02-16T11:23:28;94377.78;;;7.50;43.01
30935;BME280;51033;42.648;23.292;2024-02-16T11:26:04;94350.13;;;7.61;41.99
30935;BME280;51033;42.648;23.292;2024-02-16T11:28:32;94373.31;;;7.75;41.31
30935;BME280;51033;42.648;23.292;2024-02-16T11:30:59;94359.56;;;7.96;42.47
30935;BME280;51033;42.648;23.292;2024-02-16T11:33:25;94354.00;;;7.45;41.88
30935;BME280;51033;42.648;23.292;2024-02-16T11:35:54;94369.00;;;7.26;41.90
30935;BME280;51033;42.648;23.292;2024-02-16T11:38:20;94364.75;;;7.54;41.67
30935;BME280;51033;42.648;23.292;2024-02-16T11:41:06;94348.47;;;7.42;42.00
30935;BME280;51033;42.648;23.292;2024-02-16T11:43:35;94323.56;;;7.19;41.87
30935;BME280;51033;42.648;23.292;2024-02-16T11:46:20;94354.03;;;7.93;41.95
30935;BME280;51033;42.648;23.292;2024-02-16T11:48:46;94355.06;;;7.97;42.01
30935;BME280;51033;42.648;23.292;2024-02-16T11:51:15;94337.09;;;8.36;42.97
30935;BME280;51033;42.648;23.292;2024-02-16T11:53:42;94328.75;;;8.05;41.41
30935;BME280;51033;42.648;23.292;2024-02-16T11:56:08;94349.38;;;7.85;41.41
30935;BME280;51033;42.648;23.292;2024-02-16T11:58:34;94348.03;;;7.58;42.07
30935;BME280;51033;42.648;23.292;2024-02-16T12:01:00;94338.91;;;7.75;42.14
30935;BME280;51033;42.648;23.292;2024-02-16T12:03:25;94331.72;;;7.51;42.47
30935;BME280;51033;42.648;23.292;2024-02-16T12:05:56;94342.63;;;7.68;42.32
30935;BME280;51033;42.648;23.292;2024-02-16T12:08:22;94352.09;;;7.51;42.22
30935;BME280;51033;42.648;23.292;2024-02-16T12:10:49;94341.56;;;7.46;42.60
30935;BME280;51033;42.648;23.292;2024-02-16T12:13:18;94341.06;;;7.73;41.93
30935;BME280;51033;42.648;23.292;2024-02-16T12:15:45;94333.97;;;7.63;41.72
30935;BME280;51033;42.648;23.292;2024-02-16T12:21:02;94329.75;;;7.38;42.45
30935;BME280;51033;42.648;23.292;2024-02-16T12:23:29;94316.53;;;7.86;42.55
30935;BME280;51033;42.648;23.292;2024-02-16T12:25:58;94331.41;;;8.43;41.98
30935;BME280;51033;42.648;23.292;2024-02-16T12:28:27;94324.97;;;8.30;41.14
30935;BME280;51033;42.648;23.292;2024-02-16T12:30:57;94325.03;;;8.25;41.19
30935;BME280;51033;42.648;23.292;2024-02-16T12:33:23;94318.84;;;7.92;41.39
30935;BME280;51033;42.648;23.292;2024-02-16T12:35:49;94320.13;;;7.71;42.23
30935;BME280;51033;42.648;23.292;2024-02-16T12:38:16;94320.75;;;7.87;41.99
30935;BME280;51033;42.648;23.292;2024-02-16T12:40:45;94316.06;;;7.79;41.78
30935;BME280;51033;42.648;23.292;2024-02-16T12:43:10;94327.44;;;7.79;41.99
30935;BME280;51033;42.648;23.292;2024-02-16T12:45:36;94327.31;;;7.42;42.15
30935;BME280;51033;42.648;23.292;2024-02-16T12:48:02;94318.81;;;7.45;42.53
30935;BME280;51033;42.648;23.292;2024-02-16T12:50:29;94305.22;;;7.27;42.85
30935;BME280;51033;42.648;23.292;2024-02-16T12:52:54;94316.25;;;7.58;42.65
30935;BME280;51033;42.648;23.292;2024-02-16T12:55:20;94317.06;;;7.59;42.45
30935;BME280;51033;42.648;23.292;2024-02-16T12:57:45;94307.00;;;7.85;41.67
30935;BME280;51033;42.648;23.292;2024-02-16T13:00:11;94310.75;;;8.02;41.56
30935;BME280;51033;42.648;23.292;2024-02-16T13:02:37;94313.94;;;8.61;41.71